Pagrindinis puslapis
METAR-TAF:

METAR-TAF

Oro uostai :

Nansi, Prancūzija

platuma: 48-41N, ilguma: 006-13E, Aukštis: 225 m

Dabartinis oras

Ataskaita buvo paskelbta 30 minutes, ne 09:00 UTC
Vėjas 12 kt iš Rytų, svyruoja nuo Šiaurės Rytų ir Rytų/Pietryčių
Temperatūra 15°C
Drėgmė 39%
Slėgis 1026 hPa
Matomumas 10 km arba daugiau
nėra debesų žemiau 1500 m ir nėra kamuolinių lietaus debesų

METAR: LFSN 200900Z AUTO 09012KT 050V110 CAVOK 15/01 Q1026

Laikas: 11:30 (09:30 UTC)


TAF: trūkstamas

Orai ataskaitas ir orų prognozės (METAR, TAF).

turimą stotys yra geltonos ir raudonos taškus žemėlapyje.

Perkelti pele per norėdami pamatyti stoties vardą.

Tada spustelėkite, norėdami matyti oro stebėjimo ir prognozės.

Norėdami pakeisti žemėlapį: spustelėkite ant žalios mygtukų su juodo kryžiaus žemyn,; žalią mygtuką su brūkšneliu, jei norite nutolinti; arba žalių rodyklių gretimoms žemėlapius.


METAR-TAF: